Time;durP1;ratioP1;P1;durP2;ratioP2;P2;SDS_P1;SDS_P2;PMS_P1;PMS_P2;Temp;Humidity;BMP_temperature;BMP_pressure;BME280_temperature;BME280_humidity;BME280_pressure;Samples;Min_cycle;Max_cycle;Signal;HPM_P1;HPM_P2
2023/04/09 00:01:24;;;;;;;14.35;7.38;;;;;;;8.83;100.00;100316.50;5139514;28;20051;-64
2023/04/09 00:03:50;;;;;;;13.60;6.80;;;;;;;8.99;100.00;100306.66;5139325;27;20142;-63
2023/04/09 00:06:16;;;;;;;9.60;6.55;;;;;;;9.02;100.00;100288.81;5139603;27;20130;-63
2023/04/09 00:08:42;;;;;;;14.90;6.75;;;;;;;8.98;100.00;100271.44;5139152;28;20370;-63
2023/04/09 00:11:08;;;;;;;10.40;6.82;;;;;;;8.84;100.00;100256.03;5139663;28;20421;-61
2023/04/09 00:13:34;;;;;;;12.63;6.95;;;;;;;8.81;100.00;100266.84;5139153;28;20111;-60
2023/04/09 00:16:00;;;;;;;13.77;7.05;;;;;;;8.81;100.00;100273.09;5139780;28;20109;-60
2023/04/09 00:18:26;;;;;;;13.57;6.95;;;;;;;8.77;100.00;100271.34;5139375;28;20062;-62
2023/04/09 00:20:52;;;;;;;12.32;7.38;;;;;;;8.71;100.00;100279.72;5139439;28;20058;-60
2023/04/09 00:23:19;;;;;;;13.95;5.95;;;;;;;8.71;100.00;100300.78;5139066;27;20048;-62
2023/04/09 00:25:45;;;;;;;12.45;7.28;;;;;;;8.77;100.00;100291.28;5139035;28;20085;-59
2023/04/09 00:28:11;;;;;;;13.35;7.63;;;;;;;8.69;100.00;100292.88;5139190;28;20051;-62
2023/04/09 00:30:37;;;;;;;14.20;6.45;;;;;;;8.81;100.00;100289.50;5138979;28;20062;-64
2023/04/09 00:33:03;;;;;;;14.50;7.20;;;;;;;8.73;100.00;100287.59;5139241;28;20047;-63
2023/04/09 00:35:29;;;;;;;12.02;7.47;;;;;;;8.86;100.00;100280.31;5138830;27;20423;-60
2023/04/09 00:37:55;;;;;;;14.80;7.72;;;;;;;8.75;100.00;100279.06;5139161;28;20067;-63
2023/04/09 00:40:21;;;;;;;12.65;6.65;;;;;;;8.66;100.00;100279.06;5138764;28;20195;-58
2023/04/09 00:42:47;;;;;;;11.48;5.93;;;;;;;8.44;100.00;100283.63;5139125;27;20046;-59
2023/04/09 00:45:13;;;;;;;15.13;7.25;;;;;;;8.48;100.00;100297.44;5138525;27;20149;-58
2023/04/09 00:47:39;;;;;;;10.32;6.70;;;;;;;8.55;100.00;100296.94;5138821;28;20047;-60
2023/04/09 00:50:06;;;;;;;18.70;6.68;;;;;;;8.57;100.00;100294.72;5137969;27;20055;-62
2023/04/09 00:52:32;;;;;;;10.02;6.60;;;;;;;8.71;100.00;100276.19;5138253;28;20051;-64
2023/04/09 00:55:00;;;;;;;10.27;6.20;;;;;;;8.42;100.00;100261.25;5138581;28;20400;-60
2023/04/09 00:57:27;;;;;;;11.93;6.93;;;;;;;8.78;100.00;100246.41;5138577;28;20079;-63
2023/04/09 00:59:53;;;;;;;12.00;7.03;;;;;;;8.60;100.00;100231.19;5138686;28;20051;-64
2023/04/09 01:02:19;;;;;;;9.32;6.45;;;;;;;8.59;100.00;100235.84;5138323;28;20421;-58
2023/04/09 01:04:47;;;;;;;11.25;6.47;;;;;;;8.67;100.00;100207.69;5138519;28;20146;-58
2023/04/09 01:07:22;;;;;;;14.48;6.65;;;;;;;8.72;100.00;100188.34;5138329;28;20047;-60
2023/04/09 01:09:56;;;;;;;9.98;6.70;;;;;;;8.63;100.00;100151.25;5138684;28;20065;-59
2023/04/09 01:12:32;;;;;;;17.52;5.85;;;;;;;8.55;100.00;100097.44;5138082;27;20134;-56
2023/04/09 01:15:05;;;;;;;15.98;6.15;;;;;;;8.60;100.00;100100.00;5138560;28;20050;-63
2023/04/09 01:17:35;;;;;;;9.95;6.38;;;;;;;8.50;100.00;100087.50;5138208;27;20245;-60
2023/04/09 01:20:04;;;;;;;10.82;6.78;;;;;;;8.56;100.00;100107.22;5138229;28;20269;-62
2023/04/09 01:22:47;;;;;;;9.35;6.57;;;;;;;8.56;100.00;100110.75;5138267;28;20133;-58
2023/04/09 01:25:25;;;;;;;9.38;6.05;;;;;;;8.35;100.00;100072.41;5137915;27;20413;-62
2023/04/09 01:28:12;;;;;;;16.83;6.93;;;;;;;8.39;100.00;100080.78;5138445;28;20392;-57
2023/04/09 01:30:42;;;;;;;16.92;6.57;;;;;;;8.41;100.00;100052.00;5138178;28;20290;-58
2023/04/09 01:33:10;;;;;;;10.77;6.38;;;;;;;8.40;100.00;100014.09;5138081;28;20061;-59
2023/04/09 01:35:36;;;;;;;12.02;6.18;;;;;;;8.43;100.00;99999.75;5138095;28;20134;-63
2023/04/09 01:38:04;;;;;;;16.15;5.82;;;;;;;8.49;100.00;99951.97;5137917;28;20051;-57
2023/04/09 01:40:30;;;;;;;15.18;6.93;;;;;;;8.43;100.00;99918.59;5138177;28;20361;-60
2023/04/09 01:42:57;;;;;;;10.45;6.32;;;;;;;8.38;100.00;99978.09;5137810;28;20134;-60
2023/04/09 01:45:25;;;;;;;13.82;6.90;;;;;;;8.28;100.00;100013.94;5138366;28;20393;-59
2023/04/09 01:47:51;;;;;;;9.32;5.78;;;;;;;8.13;100.00;100058.97;5137636;28;20051;-56
2023/04/09 01:50:18;;;;;;;8.85;6.22;;;;;;;7.97;100.00;100092.28;5138038;28;20047;-61
2023/04/09 01:52:43;;;;;;;15.88;7.00;;;;;;;7.88;100.00;100137.91;5137518;28;20051;-62
2023/04/09 01:55:09;;;;;;;12.95;6.50;;;;;;;7.82;100.00;100149.31;5137803;27;20370;-60
2023/04/09 01:57:35;;;;;;;15.65;6.72;;;;;;;7.71;100.00;100168.75;5137715;28;20429;-58
2023/04/09 02:00:02;;;;;;;9.73;6.53;;;;;;;7.72;100.00;100167.63;5137696;28;20082;-57
2023/04/09 02:02:40;;;;;;;13.98;6.25;;;;;;;7.77;100.00;100193.97;5137490;27;20047;-62
2023/04/09 02:05:11;;;;;;;10.18;6.70;;;;;;;7.39;100.00;100199.22;5137448;28;20047;-61
2023/04/09 02:07:40;;;;;;;11.10;6.38;;;;;;;7.73;100.00;100221.09;5137753;27;20043;-55
2023/04/09 02:10:09;;;;;;;13.48;6.20;;;;;;;7.71;100.00;100182.41;5137231;28;20088;-56
2023/04/09 02:12:37;;;;;;;12.48;6.70;;;;;;;7.59;100.00;100144.00;5137742;28;20086;-63
2023/04/09 02:15:06;;;;;;;9.25;6.00;;;;;;;7.71;100.00;100083.34;5137626;28;20054;-58
2023/04/09 02:17:33;;;;;;;11.80;5.97;;;;;;;7.74;100.00;100039.81;5137712;27;20063;-63
2023/04/09 02:19:59;;;;;;;9.05;6.18;;;;;;;7.77;100.00;100025.53;5137478;28;20059;-61
2023/04/09 02:22:25;;;;;;;7.50;6.22;;;;;;;7.55;100.00;100031.97;5137370;28;20134;-59
2023/04/09 02:24:51;;;;;;;11.30;6.00;;;;;;;7.52;100.00;100012.72;5137173;28;20475;-58
2023/04/09 02:27:16;;;;;;;12.95;5.40;;;;;;;7.75;100.00;99958.72;5137292;28;20058;-58
2023/04/09 02:29:42;;;;;;;8.80;5.57;;;;;;;7.73;100.00;99863.53;5137309;28;20051;-59
2023/04/09 02:32:08;;;;;;;9.48;5.80;;;;;;;7.76;100.00;99810.22;5137161;28;20107;-62
2023/04/09 02:34:35;;;;;;;14.35;6.13;;;;;;;7.71;100.00;99773.00;5137331;27;20369;-63
2023/04/09 02:37:01;;;;;;;9.70;6.10;;;;;;;7.74;100.00;99761.41;5137113;28;20099;-62
2023/04/09 02:39:27;;;;;;;8.75;5.50;;;;;;;7.54;100.00;99718.53;5137436;28;20201;-63
2023/04/09 02:41:53;;;;;;;7.72;4.75;;;;;;;7.57;100.00;99701.50;5136822;28;20134;-64
2023/04/09 02:44:18;;;;;;;10.73;5.40;;;;;;;7.55;100.00;99706.47;5137366;28;20145;-63
2023/04/09 02:46:46;;;;;;;9.93;5.03;;;;;;;7.60;100.00;99683.66;5136814;28;20051;-59
2023/04/09 02:49:12;;;;;;;9.38;5.03;;;;;;;7.72;100.00;99648.25;5137009;28;20375;-55
2023/04/09 02:51:38;;;;;;;11.27;5.20;;;;;;;7.54;100.00;99691.25;5137062;28;20051;-56
2023/04/09 02:54:04;;;;;;;9.07;5.47;;;;;;;7.34;100.00;99801.94;5136975;27;20142;-59
2023/04/09 02:56:30;;;;;;;9.07;5.88;;;;;;;7.33;100.00;99890.34;5137041;28;20043;-55
2023/04/09 02:58:56;;;;;;;11.10;5.70;;;;;;;7.31;100.00;99919.84;5136846;28;20123;-56
2023/04/09 03:01:22;;;;;;;8.90;5.10;;;;;;;7.44;100.00;99910.69;5136989;27;20139;-60
2023/04/09 03:03:49;;;;;;;10.07;5.57;;;;;;;7.45;100.00;99915.00;5136749;27;20420;-61
2023/04/09 03:06:15;;;;;;;10.05;5.93;;;;;;;7.40;100.00;99942.47;5136821;28;20143;-62
2023/04/09 03:08:42;;;;;;;9.27;5.53;;;;;;;7.31;100.00;99967.03;5136533;28;20369;-58
2023/04/09 03:11:08;;;;;;;9.13;5.53;;;;;;;7.17;100.00;99998.34;5137039;27;20133;-56
2023/04/09 03:13:33;;;;;;;11.02;5.45;;;;;;;7.11;100.00;100060.41;5136433;27;20461;-55
2023/04/09 03:15:59;;;;;;;11.07;5.50;;;;;;;7.05;100.00;100095.19;5140582;28;20047;-58
2023/04/09 03:18:25;;;;;;;8.48;5.60;;;;;;;7.10;100.00;100115.25;5139923;28;20522;-56
2023/04/09 03:20:51;;;;;;;9.73;6.13;;;;;;;7.20;100.00;100104.06;5140153;28;20083;-60
2023/04/09 03:23:17;;;;;;;14.75;6.03;;;;;;;7.26;100.00;100073.56;5140257;28;20055;-63
2023/04/09 03:25:44;;;;;;;11.85;5.72;;;;;;;7.26;100.00;100081.75;5140182;27;20098;-63
2023/04/09 03:28:09;;;;;;;8.48;5.85;;;;;;;7.29;100.00;100081.09;5140230;27;20104;-63
2023/04/09 03:30:35;;;;;;;10.55;5.93;;;;;;;7.35;100.00;100057.19;5140018;28;20055;-63
2023/04/09 03:33:01;;;;;;;7.88;5.75;;;;;;;7.42;100.00;99956.56;5140191;28;20082;-65
2023/04/09 03:35:27;;;;;;;10.95;5.53;;;;;;;7.59;100.00;99873.84;5139827;28;20083;-62
2023/04/09 03:37:53;;;;;;;9.57;5.60;;;;;;;7.47;100.00;99882.75;5140088;27;20051;-61
2023/04/09 03:40:19;;;;;;;11.73;5.75;;;;;;;7.42;100.00;99907.47;5140001;28;20138;-61
2023/04/09 03:42:46;;;;;;;10.98;6.25;;;;;;;7.40;100.00;99925.31;5140570;28;20372;-58
2023/04/09 03:45:11;;;;;;;9.93;5.72;;;;;;;7.40;100.00;99947.13;5139905;28;20059;-61
2023/04/09 03:47:37;;;;;;;9.18;5.63;;;;;;;7.38;100.00;99966.53;5140033;27;20077;-57
2023/04/09 03:50:04;;;;;;;10.82;5.93;;;;;;;7.28;100.00;99985.97;5139746;28;20138;-57
2023/04/09 03:52:30;;;;;;;11.23;6.07;;;;;;;7.23;100.00;100010.66;5139528;28;20047;-58
2023/04/09 03:54:56;;;;;;;9.88;5.72;;;;;;;7.21;100.00;100021.09;5139763;28;20192;-57
2023/04/09 03:57:21;;;;;;;12.38;6.30;;;;;;;7.23;100.00;100032.47;5139586;27;20075;-59
2023/04/09 03:59:48;;;;;;;9.93;5.82;;;;;;;7.28;100.00;100029.59;5139542;27;20055;-58
2023/04/09 04:02:14;;;;;;;10.32;6.15;;;;;;;7.17;100.00;100044.69;5139245;28;20486;-57
2023/04/09 04:04:40;;;;;;;8.73;5.30;;;;;;;7.08;100.00;100078.19;5139890;28;20083;-57
2023/04/09 04:07:06;;;;;;;10.32;6.13;;;;;;;7.24;100.00;100092.19;5139287;28;20146;-60
2023/04/09 04:09:32;;;;;;;11.05;5.45;;;;;;;7.30;100.00;100090.09;5139093;28;20058;-59
2023/04/09 04:12:01;;;;;;;10.68;5.43;;;;;;;7.30;100.00;100068.28;5139193;28;20078;-59
2023/04/09 04:14:26;;;;;;;7.97;5.43;;;;;;;7.48;100.00;100063.63;5139606;28;20047;-62
2023/04/09 04:16:53;;;;;;;9.00;5.82;;;;;;;7.73;100.00;100010.94;5138963;28;20488;-63
2023/04/09 04:19:19;;;;;;;9.15;5.07;;;;;;;7.87;100.00;99958.84;5139299;28;20051;-62
2023/04/09 04:21:45;;;;;;;10.88;6.05;;;;;;;7.95;100.00;99949.03;5139022;28;20123;-64
2023/04/09 04:24:11;;;;;;;12.93;5.88;;;;;;;7.90;100.00;99924.66;5138938;28;20066;-61
2023/04/09 04:26:39;;;;;;;14.93;5.80;;;;;;;7.82;100.00;99934.47;5138976;27;20050;-60
2023/04/09 04:29:05;;;;;;;10.73;5.68;;;;;;;7.87;100.00;99936.22;5138947;28;20097;-59
2023/04/09 04:31:31;;;;;;;13.88;5.65;;;;;;;7.69;100.00;99889.88;5139235;28;20387;-59
2023/04/09 04:33:58;;;;;;;12.75;6.10;;;;;;;7.95;100.00;99853.47;5139004;28;20050;-60
2023/04/09 04:36:23;;;;;;;14.85;5.55;;;;;;;7.86;100.00;99804.34;5139059;27;20316;-59
2023/04/09 04:38:49;;;;;;;10.20;5.63;;;;;;;8.29;100.00;99713.09;5139126;28;20055;-57
2023/04/09 04:41:15;;;;;;;15.35;6.03;;;;;;;8.25;100.00;99592.00;5139143;28;20083;-57
2023/04/09 04:43:41;;;;;;;9.82;5.85;;;;;;;8.47;100.00;99506.91;5139138;27;20092;-61
2023/04/09 04:46:07;;;;;;;9.98;5.97;;;;;;;8.67;100.00;99442.31;5138968;27;20126;-61
2023/04/09 04:48:33;;;;;;;15.43;6.35;;;;;;;8.71;100.00;99368.63;5138603;28;20058;-63
2023/04/09 04:51:01;;;;;;;15.52;6.70;;;;;;;8.43;100.00;99371.31;5138576;28;20412;-64
2023/04/09 04:53:27;;;;;;;11.48;6.50;;;;;;;8.39;100.00;99414.13;5138580;28;20480;-60
2023/04/09 04:55:53;;;;;;;10.45;6.20;;;;;;;8.44;100.00;99509.53;5138706;28;20161;-62
2023/04/09 04:58:19;;;;;;;12.32;6.03;;;;;;;8.47;100.00;99476.84;5138612;27;20046;-60
2023/04/09 05:00:45;;;;;;;13.48;6.55;;;;;;;8.64;100.00;99470.34;5138548;28;20051;-56
2023/04/09 05:03:12;;;;;;;19.73;6.15;;;;;;;8.88;100.00;99433.94;5138742;28;20051;-64
2023/04/09 05:05:38;;;;;;;10.00;6.32;;;;;;;8.77;100.00;99456.66;5138608;28;20134;-60
2023/04/09 05:08:04;;;;;;;14.77;7.10;;;;;;;8.92;100.00;99371.16;5138672;27;20047;-62
2023/04/09 05:10:30;;;;;;;8.63;6.32;;;;;;;9.11;100.00;99365.03;5138428;28;20188;-62
2023/04/09 05:12:56;;;;;;;10.57;6.85;;;;;;;9.21;100.00;99273.47;5138736;28;20047;-63
2023/04/09 05:15:22;;;;;;;9.80;6.47;;;;;;;9.40;100.00;99236.03;5138041;28;20051;-62
2023/04/09 05:17:48;;;;;;;12.43;6.78;;;;;;;9.72;100.00;99120.19;5138365;28;20366;-61
2023/04/09 05:20:14;;;;;;;14.23;7.32;;;;;;;9.78;100.00;99034.69;5138296;28;20058;-62
2023/04/09 05:22:40;;;;;;;12.48;6.88;;;;;;;9.86;100.00;98978.09;5138024;28;20079;-64
2023/04/09 05:25:09;;;;;;;12.77;6.72;;;;;;;9.94;100.00;99006.41;5137900;28;20051;-63
2023/04/09 05:27:35;;;;;;;12.30;6.97;;;;;;;10.20;100.00;98973.59;5138103;28;20104;-64
2023/04/09 05:30:01;;;;;;;14.75;6.80;;;;;;;10.53;100.00;98942.00;5138163;28;20404;-65
2023/04/09 05:32:27;;;;;;;10.85;6.25;;;;;;;11.02;100.00;98917.19;5137833;28;20192;-61
2023/04/09 05:34:53;;;;;;;10.05;6.97;;;;;;;11.79;100.00;98920.34;5138130;28;20055;-61
2023/04/09 05:37:19;;;;;;;10.48;6.25;;;;;;;12.11;100.00;98988.56;5137280;27;20097;-59
2023/04/09 05:39:45;;;;;;;15.25;6.63;;;;;;;12.39;100.00;99048.50;5138045;28;20177;-59
2023/04/09 05:42:11;;;;;;;13.57;6.07;;;;;;;13.26;100.00;99150.59;5137752;28;20123;-61
2023/04/09 05:44:37;;;;;;;11.65;6.75;;;;;;;12.23;100.00;99188.94;5138042;27;20047;-59
2023/04/09 05:47:03;;;;;;;11.40;7.07;;;;;;;13.02;100.00;99170.44;5137860;28;20070;-61
2023/04/09 05:49:29;;;;;;;9.93;6.47;;;;;;;12.91;100.00;99214.38;5137675;28;20051;-64
2023/04/09 05:51:55;;;;;;;11.77;7.45;;;;;;;13.49;100.00;99273.47;5137582;28;20453;-62
2023/04/09 05:54:21;;;;;;;11.85;6.80;;;;;;;13.16;100.00;99269.63;5137371;28;20086;-63
2023/04/09 05:56:47;;;;;;;13.82;7.38;;;;;;;13.51;100.00;99293.19;5137412;28;20047;-60
2023/04/09 05:59:16;;;;;;;13.15;6.65;;;;;;;14.04;100.00;99348.69;5137382;28;20055;-60
2023/04/09 06:01:42;;;;;;;10.82;7.32;;;;;;;14.25;100.00;99356.28;5137719;28;20047;-62
2023/04/09 06:04:08;;;;;;;15.93;7.57;;;;;;;14.59;100.00;99395.53;5137471;28;20118;-61
2023/04/09 06:06:34;;;;;;;14.65;7.28;;;;;;;15.56;100.00;99433.72;5137489;28;20472;-60
2023/04/09 06:08:59;;;;;;;11.65;7.53;;;;;;;15.99;100.00;99468.59;5137465;28;20051;-60
2023/04/09 06:11:25;;;;;;;15.00;6.63;;;;;;;16.60;100.00;99506.53;5137895;27;20043;-61
2023/04/09 06:13:51;;;;;;;11.88;7.25;;;;;;;15.99;100.00;99506.50;5137320;27;20107;-64
2023/04/09 06:16:18;;;;;;;13.57;7.50;;;;;;;16.17;100.00;99521.16;5137374;27;20043;-64
2023/04/09 06:18:45;;;;;;;12.82;6.88;;;;;;;16.69;100.00;99535.38;5137164;28;20471;-63
2023/04/09 06:21:12;;;;;;;11.40;7.05;;;;;;;17.29;100.00;99547.53;5137365;27;20055;-60
2023/04/09 06:23:39;;;;;;;12.43;9.27;;;;;;;17.73;100.00;99571.13;5137201;28;20305;-63
2023/04/09 06:26:05;;;;;;;11.70;6.38;;;;;;;17.96;100.00;99584.53;5137258;28;20055;-63
2023/04/09 06:28:32;;;;;;;11.15;6.03;;;;;;;17.90;100.00;99585.34;5137565;27;20064;-63
2023/04/09 06:30:58;;;;;;;13.07;6.70;;;;;;;18.67;100.00;99602.69;5136984;28;20058;-63
2023/04/09 06:33:25;;;;;;;11.60;6.53;;;;;;;18.84;100.00;99611.31;5137253;28;20047;-63
2023/04/09 06:35:51;;;;;;;11.80;6.40;;;;;;;18.18;100.00;99601.81;5136952;27;20058;-61
2023/04/09 06:38:17;;;;;;;10.32;6.88;;;;;;;18.99;100.00;99609.97;5137377;28;20047;-61
2023/04/09 06:40:43;;;;;;;12.02;6.85;;;;;;;19.36;100.00;99614.78;5137090;28;20142;-64
2023/04/09 06:43:09;;;;;;;8.52;6.05;;;;;;;19.17;95.91;99632.81;5137285;27;20146;-62
2023/04/09 06:45:36;;;;;;;9.98;6.70;;;;;;;19.11;93.20;99634.47;5137011;28;20051;-63
2023/04/09 06:48:03;;;;;;;15.95;9.50;;;;;;;19.68;92.00;99636.69;5136784;27;20097;-65
2023/04/09 06:50:29;;;;;;;11.30;6.47;;;;;;;19.42;88.64;99648.47;5139705;28;20057;-63
2023/04/09 06:52:56;;;;;;;11.48;6.78;;;;;;;19.04;93.15;99637.31;5140387;28;20061;-63
2023/04/09 06:55:22;;;;;;;11.15;7.32;;;;;;;18.57;100.00;99629.31;5140663;28;20047;-63
2023/04/09 06:57:48;;;;;;;9.85;6.82;;;;;;;17.55;100.00;99617.53;5140518;28;20383;-62
2023/04/09 07:00:15;;;;;;;9.82;6.53;;;;;;;17.95;100.00;99620.97;5140334;27;20168;-62
2023/04/09 07:02:41;;;;;;;11.00;6.50;;;;;;;18.46;100.00;99627.81;5140350;27;20051;-62
2023/04/09 07:05:08;;;;;;;15.10;6.63;;;;;;;18.29;100.00;99629.50;5140545;28;20401;-65
2023/04/09 07:07:34;;;;;;;17.45;10.77;;;;;;;17.24;100.00;99621.97;5140139;28;20050;-63
2023/04/09 07:10:01;;;;;;;17.35;10.32;;;;;;;17.25;100.00;99615.25;5140520;28;20150;-63
2023/04/09 07:12:27;;;;;;;12.20;6.93;;;;;;;17.48;100.00;99615.56;5140033;28;20293;-62
2023/04/09 07:14:56;;;;;;;22.60;7.15;;;;;;;17.45;100.00;99599.75;5140176;28;20051;-61
2023/04/09 07:17:22;;;;;;;17.63;7.18;;;;;;;17.39;100.00;99599.38;5140321;28;20061;-64
2023/04/09 07:19:48;;;;;;;15.60;6.43;;;;;;;17.01;100.00;99570.56;5139969;28;20051;-61
2023/04/09 07:22:14;;;;;;;12.48;6.88;;;;;;;16.85;100.00;99595.91;5140295;28;20139;-61
2023/04/09 07:24:41;;;;;;;16.80;7.03;;;;;;;16.87;100.00;99589.97;5139870;27;20507;-63
2023/04/09 07:27:07;;;;;;;13.05;9.50;;;;;;;16.29;100.00;99602.94;5140136;27;20054;-60
2023/04/09 07:29:33;;;;;;;24.60;8.23;;;;;;;16.38;100.00;99588.75;5139862;28;20378;-61
2023/04/09 07:31:59;;;;;;;10.88;6.85;;;;;;;16.60;100.00;99561.88;5140227;27;20384;-62
2023/04/09 07:34:26;;;;;;;14.35;7.25;;;;;;;17.10;100.00;99592.31;5139878;28;20047;-62
2023/04/09 07:36:52;;;;;;;11.10;6.57;;;;;;;18.58;100.00;99617.00;5140377;28;20051;-62
2023/04/09 07:39:19;;;;;;;15.77;7.00;;;;;;;19.07;100.00;99636.50;5139805;28;20047;-63
2023/04/09 07:41:47;;;;;;;8.35;5.78;;;;;;;19.25;94.53;99650.22;5139976;28;20051;-60
2023/04/09 07:44:13;;;;;;;10.15;6.60;;;;;;;19.81;92.79;99653.63;5139800;28;20047;-64
2023/04/09 07:46:40;;;;;;;10.70;5.95;;;;;;;20.16;83.59;99657.97;5139805;28;20093;-64
2023/04/09 07:49:06;;;;;;;10.18;6.35;;;;;;;20.68;76.24;99674.34;5139773;27;20047;-61
2023/04/09 07:51:32;;;;;;;10.13;8.50;;;;;;;19.85;73.78;99676.63;5139882;28;20309;-60
2023/04/09 07:53:57;;;;;;;9.57;4.90;;;;;;;19.86;72.38;99688.53;5139800;28;20142;-60
2023/04/09 07:56:23;;;;;;;7.47;5.20;;;;;;;19.87;72.16;99676.22;5139393;28;20328;-61
2023/04/09 07:58:50;;;;;;;7.07;4.88;;;;;;;20.72;72.66;99679.06;5139837;28;20046;-61
2023/04/09 08:01:16;;;;;;;9.68;5.70;;;;;;;20.01;73.40;99678.81;5138913;27;20487;-61
2023/04/09 08:03:42;;;;;;;8.93;5.60;;;;;;;20.81;72.33;99685.69;5139609;28;20392;-63
2023/04/09 08:06:08;;;;;;;15.18;6.15;;;;;;;21.62;69.30;99679.16;5139221;28;20141;-63
2023/04/09 08:08:34;;;;;;;8.98;5.93;;;;;;;20.95;72.96;99679.09;5139600;28;20053;-63
2023/04/09 08:11:00;;;;;;;13.32;6.13;;;;;;;21.04;75.01;99668.22;5139021;28;20141;-63
2023/04/09 08:13:26;;;;;;;9.15;6.88;;;;;;;20.52;79.06;99667.81;5139395;27;20058;-62
2023/04/09 08:15:53;;;;;;;10.43;6.63;;;;;;;19.75;85.53;99658.84;5139769;28;20373;-62
2023/04/09 08:18:19;;;;;;;9.68;7.38;;;;;;;20.09;83.20;99654.47;5139244;28;20047;-61
2023/04/09 08:20:45;;;;;;;13.00;6.13;;;;;;;21.46;77.21;99667.91;5139184;27;20412;-61
2023/04/09 08:23:11;;;;;;;7.55;6.57;;;;;;;21.14;77.77;99656.09;5139070;28;20083;-60
2023/04/09 08:25:36;;;;;;;13.98;6.70;;;;;;;21.52;77.05;99666.97;5139360;28;20097;-60
2023/04/09 08:28:03;;;;;;;10.52;5.00;;;;;;;21.18;65.63;99681.09;5139046;28;20078;-62
2023/04/09 08:30:29;;;;;;;6.60;4.38;;;;;;;21.32;65.21;99668.91;5139285;28;20051;-60
2023/04/09 08:32:56;;;;;;;7.85;4.53;;;;;;;21.45;64.93;99671.91;5138890;27;20051;-62
2023/04/09 08:35:22;;;;;;;6.90;4.05;;;;;;;21.39;67.86;99674.41;5139166;27;20098;-63
2023/04/09 08:37:48;;;;;;;8.23;4.68;;;;;;;21.66;62.86;99670.72;5138574;28;20507;-64
2023/04/09 08:40:14;;;;;;;7.32;4.03;;;;;;;21.45;64.41;99675.47;5139157;28;20408;-60
2023/04/09 08:42:43;;;;;;;17.08;4.78;;;;;;;22.35;63.48;99670.94;5138905;28;20095;-61
2023/04/09 08:45:10;;;;;;;6.70;4.10;;;;;;;22.23;62.30;99677.97;5138886;28;20129;-62
2023/04/09 08:47:37;;;;;;;6.30;4.10;;;;;;;22.06;66.97;99672.31;5138869;27;20104;-61
2023/04/09 08:50:05;;;;;;;8.10;4.43;;;;;;;22.00;64.37;99676.81;5138607;28;20141;-63
2023/04/09 08:52:32;;;;;;;7.53;4.50;;;;;;;21.35;61.89;99674.47;5138907;28;20196;-63
2023/04/09 08:54:58;;;;;;;8.38;5.35;;;;;;;22.74;63.47;99679.19;5138530;28;20141;-60
2023/04/09 08:57:24;;;;;;;8.63;4.47;;;;;;;21.63;64.74;99660.44;5138946;27;20065;-60
2023/04/09 08:59:50;;;;;;;14.40;4.80;;;;;;;22.27;62.82;99667.50;5138492;28;20051;-62
2023/04/09 09:02:16;;;;;;;7.13;4.40;;;;;;;22.04;63.11;99668.38;5138707;28;20448;-64
2023/04/09 09:04:46;;;;;;;6.50;4.30;;;;;;;22.32;64.33;99672.56;5138350;28;20089;-64
2023/04/09 09:07:13;;;;;;;6.50;4.13;;;;;;;21.59;63.27;99674.44;5138647;28;20065;-62
2023/04/09 09:09:52;;;;;;;8.18;3.92;;;;;;;22.34;61.41;99675.72;5138428;27;20200;-63
2023/04/09 09:12:31;;;;;;;7.47;4.15;;;;;;;21.62;63.15;99679.16;5137393;27;20130;-61
2023/04/09 09:14:57;;;;;;;5.68;4.90;;;;;;;22.74;62.27;99670.03;5138466;27;20043;-62
2023/04/09 09:17:22;;;;;;;11.98;4.15;;;;;;;22.65;61.91;99672.63;5138108;28;20115;-63
2023/04/09 09:19:48;;;;;;;6.97;4.53;;;;;;;22.28;63.11;99675.44;5138400;27;20440;-62
2023/04/09 09:22:15;;;;;;;6.78;4.35;;;;;;;22.77;61.41;99675.53;5138023;28;20461;-61
2023/04/09 09:24:46;;;;;;;8.73;4.70;;;;;;;23.54;59.44;99675.25;5138182;28;20055;-60
2023/04/09 09:27:29;;;;;;;8.63;5.22;;;;;;;23.21;60.11;99680.88;5137918;28;20051;-61
2023/04/09 09:29:56;;;;;;;8.75;5.40;;;;;;;23.35;59.74;99674.91;5137942;28;20051;-63
2023/04/09 09:32:23;;;;;;;9.30;4.15;;;;;;;22.54;63.21;99670.09;5138039;28;20430;-63
2023/04/09 09:34:57;;;;;;;8.02;3.80;;;;;;;23.16;61.20;99670.25;5137697;28;20058;-63
2023/04/09 09:37:28;;;;;;;12.93;4.47;;;;;;;21.81;63.42;99666.44;5138122;28;20066;-62
2023/04/09 09:39:54;;;;;;;9.25;4.15;;;;;;;22.08;64.75;99663.50;5137985;28;20055;-62
2023/04/09 09:42:20;;;;;;;5.90;3.67;;;;;;;22.80;64.49;99659.91;5137940;27;20047;-63
2023/04/09 09:44:47;;;;;;;10.23;5.60;;;;;;;22.88;62.71;99668.91;5137773;28;20147;-62
2023/04/09 09:47:14;;;;;;;6.68;4.25;;;;;;;23.12;62.52;99659.13;5138063;27;20111;-62
2023/04/09 09:49:40;;;;;;;5.80;4.03;;;;;;;22.43;63.11;99661.19;5137504;28;20416;-62
2023/04/09 09:52:09;;;;;;;4.93;3.65;;;;;;;22.46;65.12;99657.50;5138028;28;20134;-63
2023/04/09 09:54:40;;;;;;;7.38;3.83;;;;;;;23.02;64.48;99657.38;5137777;27;20374;-64
2023/04/09 09:57:08;;;;;;;7.47;4.10;;;;;;;21.95;64.22;99654.19;5137660;28;20051;-60
2023/04/09 09:59:39;;;;;;;7.95;4.88;;;;;;;22.43;64.53;99661.97;5137460;28;20145;-62
2023/04/09 10:02:09;;;;;;;9.85;5.60;;;;;;;22.70;66.05;99649.78;5137514;28;20057;-64
2023/04/09 10:04:36;;;;;;;7.63;4.75;;;;;;;23.15;63.60;99651.88;5137564;28;20094;-64
2023/04/09 10:07:04;;;;;;;13.52;4.93;;;;;;;22.46;67.02;99646.31;5137301;27;20047;-60
2023/04/09 10:09:31;;;;;;;7.57;4.90;;;;;;;21.60;70.37;99640.53;5137633;28;20139;-63
2023/04/09 10:11:59;;;;;;;9.23;5.55;;;;;;;21.35;72.75;99637.41;5137056;28;20047;-63
2023/04/09 10:14:28;;;;;;;9.45;5.53;;;;;;;19.98;80.35;99629.56;5137467;28;20057;-62
2023/04/09 10:16:54;;;;;;;9.90;5.35;;;;;;;20.00;82.46;99624.38;5137128;28;20054;-60
2023/04/09 10:19:21;;;;;;;7.65;4.63;;;;;;;19.78;86.66;99609.16;5137118;28;20359;-63
2023/04/09 10:21:52;;;;;;;11.15;5.00;;;;;;;20.07;85.23;99609.56;5137512;28;20073;-63
2023/04/09 10:24:18;;;;;;;7.72;5.10;;;;;;;20.43;81.40;99615.44;5142625;27;20070;-63
2023/04/09 10:26:45;;;;;;;10.98;5.10;;;;;;;19.57;82.27;99613.75;5144223;27;20105;-63
2023/04/09 10:29:14;;;;;;;8.30;6.45;;;;;;;20.35;82.26;99613.94;5144096;27;20051;-60
2023/04/09 10:32:04;;;;;;;5.72;4.63;;;;;;;20.57;78.19;99617.22;5144352;27;20103;-61
2023/04/09 10:34:35;;;;;;;9.25;6.43;;;;;;;21.56;74.18;99623.09;5138342;27;20061;-62
2023/04/09 10:37:01;;;;;;;6.15;4.30;;;;;;;21.56;73.34;99620.28;5143876;27;20463;-59
2023/04/09 10:39:28;;;;;;;8.05;4.47;;;;;;;21.17;75.18;99620.22;5143786;27;20051;-59
2023/04/09 10:41:56;;;;;;;7.38;4.95;;;;;;;21.22;72.56;99625.28;5144061;27;20043;-63
2023/04/09 10:44:27;;;;;;;6.15;4.40;;;;;;;20.35;75.82;99614.72;5144066;27;20055;-62
2023/04/09 10:46:54;;;;;;;13.00;4.07;;;;;;;21.05;74.68;99616.81;5143908;27;20088;-61
2023/04/09 10:49:24;;;;;;;10.75;5.10;;;;;;;21.39;70.67;99615.81;5143990;27;20363;-63
2023/04/09 10:51:52;;;;;;;10.05;4.45;;;;;;;21.30;71.67;99616.38;5143758;27;20051;-64
2023/04/09 10:54:44;;;;;;;7.82;3.78;;;;;;;21.65;71.45;99618.94;5144050;27;20135;-62
2023/04/09 10:57:19;;;;;;;7.82;4.95;;;;;;;21.25;69.51;99614.06;5143738;27;20046;-60
2023/04/09 10:59:47;;;;;;;9.65;4.93;;;;;;;21.61;67.93;99625.34;5144023;27;20141;-60
2023/04/09 11:02:47;;;;;;;8.77;4.68;;;;;;;22.00;67.51;99617.41;5143794;27;20051;-62
2023/04/09 11:05:27;;;;;;;6.72;4.30;;;;;;;22.11;68.88;99612.38;5143455;27;20440;-63
2023/04/09 11:08:02;;;;;;;8.25;4.30;;;;;;;21.33;71.93;99601.56;5143832;27;20051;-60
2023/04/09 11:10:28;;;;;;;8.63;4.22;;;;;;;20.82;77.02;99594.53;5143358;27;20061;-62
2023/04/09 11:12:54;;;;;;;9.23;5.20;;;;;;;20.34;79.27;99588.09;5143766;27;20043;-62
2023/04/09 11:15:21;;;;;;;6.80;4.40;;;;;;;20.86;79.96;99584.91;5143753;27;20055;-63
2023/04/09 11:17:48;;;;;;;5.90;4.03;;;;;;;19.87;87.79;99570.50;5143741;27;20140;-59
2023/04/09 11:20:16;;;;;;;9.75;4.80;;;;;;;19.35;91.50;99570.69;5143612;27;20456;-59
2023/04/09 11:22:42;;;;;;;10.52;5.72;;;;;;;18.62;95.77;99557.88;5143586;27;20055;-59
2023/04/09 11:25:08;;;;;;;5.90;3.90;;;;;;;18.63;98.11;99560.28;5143481;27;20115;-64